메인 페이지
METAR-TAF:

METAR-TAF

공항 :

세인트존스, 뉴펀들랜드 래브라도, 캐나다

위도: 47-37N, 경도: 052-44W, 고도: 134m

현재 날씨관측

예보는 1 시간 7분 전, 04:00시(UTC)에 발표되었습니다.
북북서16kt, 순간 최대 풍속 21kt
온도 -6°C
습도 73%
기압 1001 hPa
시정: 24.1km
고도 2000ft 상공 구름 많음

METAR: CYYT 200400Z 33016G21KT 15SM BKN020 M06/M10 A2957 RMK SC6 SLP022

시각: 01:37 (05:07 UTC)

예보

예보는 2 시간 36분 전, 02:31시(UTC)에 발표되었습니다.
예보 대상 시간: 20일 02시부터 20일 24시까지 (UTC)
북북서12kt, 순간 최대 풍속 22kt
시정: 10km
고도 2000ft 상공 흐림
일시적
20일 02시부터 20일 08시까지 (UTC)
고도 2500ft 상공 흐림
20일 0800시부터 (UTC)
서북서12kt
시정: 10km
고도 2000ft 상공 구름 많음
20일 1200시부터 (UTC)
12kt
시정: 10km
고도 2000ft 상공 구름 보통
20일 1700시부터 (UTC)
남남서15kt, 순간 최대 풍속 25kt
시정: 6.4km
고도 2000ft 상공 구름 많음
고도 10000ft 상공 구름 많음
약한소낙눈
20일 2000시부터 (UTC)
남남서20kt, 순간 최대 풍속 30kt
시정: 3.2km
고도 2000ft 상공 흐림
약한눈

TAF: CYYT 200231Z 2002/2024 34012G22KT P6SM OVC020 TEMPO 2002/2008 OVC025 FM200800 30012KT P6SM BKN020 FM201200 27012KT P6SM SCT020 FM201700 21015G25KT 4SM -SHSN BKN020 BKN100 FM202000 20020G30KT 2SM -SN OVC020 RMK NXT FCST BY 200600Z

4,000개 이상의 공항 관측 자료 및 예보 (METAR 및 TAF 보고).

지도상에서 검색 가능한 기상관측소가 노란 점과 빨간 점으로 표시되어 있습니다.

기상관측소 명을 보려면 표시 위로 마우스를 이동하세요.

날씨 관측과 예보를 보려면 클릭하세요.

지도 변경 : 확대하려면 엑스 표시가 있는 녹색 버튼, 축소하려면 빼기 표시가 있는 녹색 버튼, 다음 페이지의 지도를 보려면 녹색 화살표를 클릭하세요.


METAR-TAF: